Time;durP1;ratioP1;P1;durP2;ratioP2;P2;SDS_P1;SDS_P2;PMS_P1;PMS_P2;Temp;Humidity;BMP_temperature;BMP_pressure;BME280_temperature;BME280_humidity;BME280_pressure;Samples;Min_cycle;Max_cycle;Signal;HPM_P1;HPM_P2
2022/07/24 00:00:25;;;;;;;8.82;8.02;;;;;;;;;;5289851;28;20498;-85
2022/07/24 00:02:56;;;;;;;12.93;11.70;;;;;;;;;;5278698;28;20032;-85
2022/07/24 00:05:27;;;;;;;11.00;10.00;;;;;;;;;;5288684;28;20333;-85
2022/07/24 00:07:58;;;;;;;11.20;10.13;;;;;;;;;;5288672;28;20021;-84
2022/07/24 00:10:31;;;;;;;10.93;9.93;;;;;;;;;;5292441;28;20028;-85
2022/07/24 00:13:02;;;;;;;9.07;8.18;;;;;;;;;;5279519;28;20024;-84
2022/07/24 00:15:33;;;;;;;9.90;8.98;;;;;;;;;;5309056;28;20112;-84
2022/07/24 00:18:04;;;;;;;10.20;9.30;;;;;;;;;;5260652;28;20304;-84
2022/07/24 00:20:36;;;;;;;10.77;9.67;;;;;;;;;;5277593;28;20044;-84
2022/07/24 00:23:14;;;;;;;10.03;8.97;;;;;;;;;;5281534;28;20272;-92
2022/07/24 00:25:46;;;;;;;11.63;8.30;;;;;;;;;;5249300;28;20280;-90
2022/07/24 00:28:20;;;;;;;9.65;8.10;;;;;;;;;;5249010;28;20033;-90
2022/07/24 00:30:51;;;;;;;9.80;7.50;;;;;;;;;;5262249;28;20465;-88
2022/07/24 00:33:22;;;;;;;8.17;7.37;;;;;;;;;;5246083;28;20045;-91
2022/07/24 00:35:58;;;;;;;9.10;7.60;;;;;;;;;;5247934;28;20057;-91
2022/07/24 00:38:31;;;;;;;10.93;7.53;;;;;;;;;;5246464;28;20045;-91
2022/07/24 00:41:03;;;;;;;9.38;7.75;;;;;;;;;;5258022;28;20029;-89
2022/07/24 00:43:57;;;;;;;11.75;7.60;;;;;;;;;;5257062;28;20051;-89
2022/07/24 00:46:51;;;;;;;9.27;7.65;;;;;;;;;;5238799;28;20410;-90
2022/07/24 00:49:48;;;;;;;8.23;7.30;;;;;;;;;;5247769;28;20390;-91
2022/07/24 00:52:23;;;;;;;8.55;7.68;;;;;;;;;;5269030;28;20076;-89
2022/07/24 00:54:57;;;;;;;10.07;7.43;;;;;;;;;;5266262;28;20033;-89
2022/07/24 00:57:46;;;;;;;;;;;;;;;;;;;;;
2022/07/24 01:03:21;;;;;;;8.52;7.45;;;;;;;;;;5276072;28;20036;-89
2022/07/24 01:05:53;;;;;;;10.35;7.50;;;;;;;;;;5271664;28;20049;-88
2022/07/24 01:08:26;;;;;;;9.82;7.80;;;;;;;;;;5265403;28;20068;-89
2022/07/24 01:11:07;;;;;;;8.50;7.60;;;;;;;;;;5278883;28;20182;-89
2022/07/24 01:13:39;;;;;;;8.40;7.60;;;;;;;;;;5304012;28;20491;-88
2022/07/24 01:16:29;;;;;;;11.48;7.30;;;;;;;;;;5259822;28;20048;-93
2022/07/24 01:19:06;;;;;;;12.55;7.78;;;;;;;;;;5264951;28;20691;-90
2022/07/24 01:21:47;;;;;;;9.90;7.50;;;;;;;;;;5245475;28;20083;-88
2022/07/24 01:24:19;;;;;;;11.23;7.90;;;;;;;;;;5271664;28;20116;-87
2022/07/24 01:26:50;;;;;;;9.43;8.23;;;;;;;;;;5286534;28;20028;-86
2022/07/24 01:29:25;;;;;;;8.63;7.75;;;;;;;;;;5268564;28;20021;-86
2022/07/24 01:32:07;;;;;;;8.68;7.80;;;;;;;;;;5268449;28;20041;-87
2022/07/24 01:44:06;;;;;;;8.88;7.72;;;;;;;;;;5286909;28;20039;-88
2022/07/24 01:50:00;;;;;;;;;;;;;;;;;;;;;
2022/07/24 01:56:23;;;;;;;;;;;;;;;;;;;;;
2022/07/24 01:59:06;;;;;;;10.70;9.65;;;;;;;;;;5286258;28;40242;-89
2022/07/24 02:01:55;;;;;;;11.05;9.95;;;;;;;;;;5271650;28;20025;-88
2022/07/24 02:04:56;;;;;;;10.98;8.68;;;;;;;;;;5246822;28;20509;-89
2022/07/24 02:07:47;;;;;;;11.27;9.93;;;;;;;;;;5257704;28;20037;-88
2022/07/24 02:10:31;;;;;;;;;;;;;;;;;;;;;
2022/07/24 02:13:08;;;;;;;10.20;9.30;;;;;;;;;;5297348;28;40150;-90
2022/07/24 02:15:51;;;;;;;11.85;10.63;;;;;;;;;;5292789;28;20110;-90
2022/07/24 02:18:38;;;;;;;12.95;11.00;;;;;;;;;;5278518;28;20484;-90
2022/07/24 02:31:28;;;;;;;;;;;;;;;;;;;;;
2022/07/24 02:34:09;;;;;;;13.80;12.45;;;;;;;;;;5264172;28;39740;-90
2022/07/24 02:36:44;;;;;;;13.50;12.10;;;;;;;;;;5260817;28;20037;-89
2022/07/24 02:39:15;;;;;;;11.52;9.55;;;;;;;;;;5285715;28;20115;-90
2022/07/24 02:41:54;;;;;;;15.55;12.70;;;;;;;;;;5284790;28;20434;-90
2022/07/24 02:44:28;;;;;;;13.32;12.02;;;;;;;;;;5285359;28;20021;-89
2022/07/24 02:47:00;;;;;;;13.57;11.63;;;;;;;;;;5269211;28;20033;-89
2022/07/24 02:49:32;;;;;;;13.10;11.63;;;;;;;;;;5287369;28;20469;-89
2022/07/24 02:52:06;;;;;;;14.75;11.77;;;;;;;;;;5264783;28;20112;-89
2022/07/24 02:54:38;;;;;;;13.93;11.45;;;;;;;;;;5264617;28;20034;-89
2022/07/24 02:57:12;;;;;;;12.07;10.98;;;;;;;;;;5292200;28;20395;-89
2022/07/24 02:59:49;;;;;;;11.35;10.43;;;;;;;;;;5289198;28;20500;-89
2022/07/24 03:02:21;;;;;;;12.95;11.65;;;;;;;;;;5254908;28;20389;-89
2022/07/24 03:04:52;;;;;;;16.97;14.73;;;;;;;;;;5268286;28;20028;-89
2022/07/24 03:07:23;;;;;;;11.90;10.80;;;;;;;;;;5266081;28;20410;-89
2022/07/24 03:09:55;;;;;;;15.43;13.95;;;;;;;;;;5268150;28;20031;-89
2022/07/24 03:12:29;;;;;;;15.77;14.38;;;;;;;;;;5273349;28;20025;-89
2022/07/24 03:15:06;;;;;;;15.07;13.73;;;;;;;;;;5283069;28;20051;-89
2022/07/24 03:17:48;;;;;;;15.13;13.75;;;;;;;;;;5261558;28;20065;-89
2022/07/24 03:20:20;;;;;;;15.65;14.23;;;;;;;;;;5244507;28;20056;-89
2022/07/24 03:22:58;;;;;;;16.77;14.95;;;;;;;;;;5262616;28;20029;-89
2022/07/24 03:25:32;;;;;;;18.67;16.35;;;;;;;;;;5271012;28;20048;-89
2022/07/24 03:28:16;;;;;;;18.30;16.58;;;;;;;;;;5245860;28;20025;-90
2022/07/24 03:31:07;;;;;;;17.02;15.32;;;;;;;;;;5262550;28;20039;-90
2022/07/24 03:33:45;;;;;;;17.58;15.88;;;;;;;;;;5293106;28;20031;-90
2022/07/24 03:36:25;;;;;;;19.92;16.75;;;;;;;;;;5272831;28;20405;-90
2022/07/24 03:38:57;;;;;;;19.52;17.67;;;;;;;;;;5265334;28;20037;-89
2022/07/24 03:44:34;;;;;;;20.83;18.73;;;;;;;;;;5275747;28;20039;-90
2022/07/24 03:47:22;;;;;;;22.13;19.00;;;;;;;;;;5264884;28;20040;-90
2022/07/24 03:49:59;;;;;;;22.30;20.00;;;;;;;;;;5265653;28;20033;-90
2022/07/24 03:52:31;;;;;;;18.50;16.60;;;;;;;;;;5267902;28;20044;-89
2022/07/24 03:55:07;;;;;;;21.23;19.13;;;;;;;;;;5286374;28;20021;-89
2022/07/24 03:57:41;;;;;;;21.30;18.88;;;;;;;;;;5281340;28;20434;-88
2022/07/24 04:00:17;;;;;;;21.13;19.13;;;;;;;;;;5286080;28;20028;-89
2022/07/24 04:02:49;;;;;;;24.23;21.75;;;;;;;;;;5286379;28;20058;-88
2022/07/24 04:05:23;;;;;;;23.77;21.23;;;;;;;;;;5277673;28;20033;-89
2022/07/24 04:08:00;;;;;;;25.27;22.33;;;;;;;;;;5285085;28;20199;-88
2022/07/24 04:10:48;;;;;;;25.42;21.05;;;;;;;;;;5304528;28;20024;-90
2022/07/24 04:13:19;;;;;;;26.45;23.80;;;;;;;;;;5297573;28;20070;-87
2022/07/24 04:15:56;;;;;;;26.88;23.92;;;;;;;;;;5285440;28;20070;-88
2022/07/24 04:18:30;;;;;;;27.08;24.23;;;;;;;;;;5290191;28;20024;-89
2022/07/24 04:21:05;;;;;;;32.08;28.65;;;;;;;;;;5287579;28;20393;-90
2022/07/24 04:23:36;;;;;;;28.73;25.55;;;;;;;;;;5279946;28;20023;-90
2022/07/24 04:26:13;;;;;;;29.00;25.38;;;;;;;;;;5281804;28;20043;-90
2022/07/24 04:28:58;;;;;;;34.83;30.95;;;;;;;;;;5262588;28;20095;-90
2022/07/24 04:31:45;;;;;;;35.40;31.50;;;;;;;;;;5281531;28;20035;-90
2022/07/24 04:34:25;;;;;;;35.05;31.02;;;;;;;;;;5244248;28;20271;-89
2022/07/24 04:36:59;;;;;;;34.20;30.52;;;;;;;;;;5275294;28;20505;-89
2022/07/24 04:39:43;;;;;;;39.45;32.65;;;;;;;;;;5283562;28;20029;-89
2022/07/24 04:42:23;;;;;;;37.17;32.88;;;;;;;;;;5281673;28;20140;-89
2022/07/24 04:45:02;;;;;;;36.95;32.72;;;;;;;;;;5264638;28;20032;-90
2022/07/24 04:47:34;;;;;;;37.25;32.47;;;;;;;;;;5261215;28;20040;-89
2022/07/24 04:50:08;;;;;;;37.13;32.70;;;;;;;;;;5277383;28;20017;-89
2022/07/24 04:52:45;;;;;;;38.28;34.13;;;;;;;;;;5258985;28;20052;-89
2022/07/24 04:56:04;;;;;;;37.85;32.95;;;;;;;;;;5278222;28;20080;-90
2022/07/24 04:58:46;;;;;;;40.40;33.85;;;;;;;;;;5174954;28;20031;-92
2022/07/24 05:01:26;;;;;;;43.75;37.13;;;;;;;;;;5246853;28;20446;-92
2022/07/24 05:04:02;;;;;;;45.15;37.72;;;;;;;;;;5287842;28;20030;-92
2022/07/24 05:06:45;;;;;;;43.78;38.40;;;;;;;;;;5253536;28;20033;-92
2022/07/24 05:09:30;;;;;;;45.63;40.60;;;;;;;;;;5276150;28;20040;-92
2022/07/24 05:12:11;;;;;;;43.08;38.03;;;;;;;;;;5273589;28;20038;-92
2022/07/24 05:14:43;;;;;;;41.00;35.03;;;;;;;;;;5270357;28;20067;-83
2022/07/24 05:17:14;;;;;;;40.92;36.63;;;;;;;;;;5280031;28;20442;-83
2022/07/24 05:19:45;;;;;;;43.63;36.65;;;;;;;;;;5285700;28;20041;-83
2022/07/24 05:22:17;;;;;;;37.67;31.92;;;;;;;;;;5286418;28;20032;-83
2022/07/24 05:24:48;;;;;;;38.93;34.77;;;;;;;;;;5285898;28;20060;-83
2022/07/24 05:27:19;;;;;;;41.22;34.45;;;;;;;;;;5285359;28;20033;-83
2022/07/24 05:29:50;;;;;;;36.30;32.00;;;;;;;;;;5280602;28;20108;-83
2022/07/24 05:32:21;;;;;;;37.00;32.97;;;;;;;;;;5278724;28;20037;-83
2022/07/24 05:34:52;;;;;;;36.27;31.63;;;;;;;;;;5285833;28;20021;-84
2022/07/24 05:37:24;;;;;;;39.30;33.80;;;;;;;;;;5284720;28;20083;-84
2022/07/24 05:39:55;;;;;;;36.23;30.40;;;;;;;;;;5269225;28;20049;-84
2022/07/24 05:42:26;;;;;;;36.00;29.33;;;;;;;;;;5287156;28;20021;-83
2022/07/24 05:44:57;;;;;;;28.55;25.38;;;;;;;;;;5287288;28;20383;-83
2022/07/24 05:47:28;;;;;;;31.97;27.67;;;;;;;;;;5284476;28;20334;-84
2022/07/24 05:50:00;;;;;;;35.88;28.58;;;;;;;;;;5286156;28;20075;-84
2022/07/24 05:52:31;;;;;;;31.90;25.73;;;;;;;;;;5285135;28;20025;-84
2022/07/24 05:55:03;;;;;;;27.40;23.90;;;;;;;;;;5285807;28;20450;-84
2022/07/24 05:57:34;;;;;;;22.95;20.48;;;;;;;;;;5280121;28;20028;-84
2022/07/24 06:00:06;;;;;;;25.30;22.67;;;;;;;;;;5261242;28;20041;-83
2022/07/24 06:02:37;;;;;;;26.85;24.02;;;;;;;;;;5284480;28;20276;-84
2022/07/24 06:05:08;;;;;;;25.40;21.67;;;;;;;;;;5267291;28;20033;-84
2022/07/24 06:07:39;;;;;;;23.15;20.70;;;;;;;;;;5284425;28;20037;-83
2022/07/24 06:10:11;;;;;;;26.20;22.00;;;;;;;;;;5265179;28;20029;-84
2022/07/24 06:12:42;;;;;;;21.98;19.75;;;;;;;;;;5267052;28;20025;-84
2022/07/24 06:15:13;;;;;;;22.85;20.45;;;;;;;;;;5285119;28;20083;-84
2022/07/24 06:17:45;;;;;;;22.47;20.27;;;;;;;;;;5265749;28;20025;-84
2022/07/24 06:20:16;;;;;;;21.97;19.77;;;;;;;;;;5284649;28;20280;-84
2022/07/24 06:22:48;;;;;;;21.08;18.88;;;;;;;;;;5284682;28;20341;-84
2022/07/24 06:25:19;;;;;;;21.17;19.17;;;;;;;;;;5283037;28;20051;-84
2022/07/24 06:27:51;;;;;;;20.45;18.25;;;;;;;;;;5280636;28;20371;-84
2022/07/24 06:30:23;;;;;;;20.00;17.85;;;;;;;;;;5273309;28;20473;-84
2022/07/24 06:32:55;;;;;;;20.95;18.73;;;;;;;;;;5284650;28;20036;-84
2022/07/24 06:35:27;;;;;;;19.23;17.08;;;;;;;;;;5283988;28;20033;-84
2022/07/24 06:38:02;;;;;;;16.88;15.27;;;;;;;;;;5265518;28;20033;-84
2022/07/24 06:40:34;;;;;;;17.10;15.18;;;;;;;;;;5284858;28;20040;-84
2022/07/24 06:43:05;;;;;;;20.55;16.70;;;;;;;;;;5266956;28;20017;-84
2022/07/24 06:45:37;;;;;;;18.00;15.47;;;;;;;;;;5285415;28;20397;-84
2022/07/24 06:48:08;;;;;;;17.35;15.25;;;;;;;;;;5284211;28;20251;-84
2022/07/24 06:50:40;;;;;;;16.20;14.60;;;;;;;;;;5285540;28;20104;-84
2022/07/24 06:53:11;;;;;;;15.17;13.70;;;;;;;;;;5284712;28;20511;-84
2022/07/24 06:55:46;;;;;;;14.97;13.43;;;;;;;;;;5290221;28;20255;-91
2022/07/24 06:58:21;;;;;;;15.02;13.45;;;;;;;;;;5288160;28;20592;-82
2022/07/24 07:00:52;;;;;;;14.50;13.07;;;;;;;;;;5269319;28;20028;-82
2022/07/24 07:03:23;;;;;;;14.88;12.38;;;;;;;;;;5279204;28;21776;-82
2022/07/24 07:05:55;;;;;;;12.67;11.20;;;;;;;;;;5273627;28;20468;-82
2022/07/24 07:08:26;;;;;;;11.98;10.80;;;;;;;;;;5260811;28;20284;-82
2022/07/24 07:10:57;;;;;;;11.82;10.75;;;;;;;;;;5270491;28;20446;-82
2022/07/24 07:13:28;;;;;;;12.50;9.67;;;;;;;;;;5287168;28;20028;-81
2022/07/24 07:16:00;;;;;;;10.47;9.20;;;;;;;;;;5285090;28;20036;-82
2022/07/24 07:18:31;;;;;;;10.38;9.32;;;;;;;;;;5285151;28;20064;-82
2022/07/24 07:21:03;;;;;;;10.47;8.43;;;;;;;;;;5278361;28;20148;-81
2022/07/24 07:23:34;;;;;;;8.80;7.40;;;;;;;;;;5280801;28;20035;-81
2022/07/24 07:26:05;;;;;;;8.10;6.40;;;;;;;;;;5284319;28;20036;-81
2022/07/24 07:28:37;;;;;;;6.70;5.00;;;;;;;;;;5283385;28;20043;-82
2022/07/24 07:31:08;;;;;;;5.97;4.70;;;;;;;;;;5266210;28;20027;-81
2022/07/24 07:33:39;;;;;;;4.35;3.95;;;;;;;;;;5283211;28;20076;-81
2022/07/24 07:36:10;;;;;;;6.17;4.40;;;;;;;;;;5287903;28;20029;-82
2022/07/24 07:38:41;;;;;;;6.13;3.90;;;;;;;;;;5256670;28;20323;-81
2022/07/24 07:41:13;;;;;;;4.23;3.70;;;;;;;;;;5289905;28;20035;-81
2022/07/24 07:43:44;;;;;;;6.53;3.93;;;;;;;;;;5286894;28;20056;-81
2022/07/24 07:46:15;;;;;;;4.97;3.10;;;;;;;;;;5278469;28;20029;-81
2022/07/24 07:48:46;;;;;;;3.97;3.30;;;;;;;;;;5283358;28;20025;-81
2022/07/24 07:51:18;;;;;;;4.50;2.87;;;;;;;;;;5265605;28;20024;-81
2022/07/24 07:53:49;;;;;;;3.67;2.40;;;;;;;;;;5277841;28;20029;-81
2022/07/24 07:56:20;;;;;;;2.30;2.10;;;;;;;;;;5280922;28;20183;-81
2022/07/24 07:58:51;;;;;;;3.33;2.30;;;;;;;;;;5277188;28;21142;-81
2022/07/24 08:01:22;;;;;;;2.27;1.70;;;;;;;;;;5282120;28;20665;-81
2022/07/24 08:03:54;;;;;;;2.10;2.00;;;;;;;;;;5279529;28;20029;-80
2022/07/24 08:06:25;;;;;;;3.03;2.07;;;;;;;;;;5285714;28;20070;-79
2022/07/24 08:08:56;;;;;;;3.08;1.92;;;;;;;;;;5302500;28;20384;-80
2022/07/24 08:11:28;;;;;;;2.80;2.10;;;;;;;;;;5281145;28;20036;-80
2022/07/24 08:13:59;;;;;;;2.22;1.83;;;;;;;;;;5281747;28;20084;-81
2022/07/24 08:16:30;;;;;;;2.17;1.70;;;;;;;;;;5282913;28;20564;-80
2022/07/24 08:19:02;;;;;;;2.47;1.83;;;;;;;;;;5279632;28;20090;-80
2022/07/24 08:21:33;;;;;;;3.27;2.10;;;;;;;;;;5278858;28;20069;-80
2022/07/24 08:24:04;;;;;;;2.23;1.97;;;;;;;;;;5276282;28;20040;-81
2022/07/24 08:26:36;;;;;;;4.57;1.88;;;;;;;;;;5274152;28;20304;-80
2022/07/24 08:29:07;;;;;;;2.63;2.17;;;;;;;;;;5277173;28;20025;-80
2022/07/24 08:31:38;;;;;;;2.25;1.83;;;;;;;;;;5277969;28;20024;-80
2022/07/24 08:34:10;;;;;;;2.15;1.95;;;;;;;;;;5260681;28;20040;-80
2022/07/24 08:36:41;;;;;;;2.47;2.28;;;;;;;;;;5260514;28;20402;-81
2022/07/24 08:39:13;;;;;;;2.43;2.00;;;;;;;;;;5260920;28;20025;-80
2022/07/24 08:41:45;;;;;;;3.08;2.08;;;;;;;;;;5277435;28;20029;-81
2022/07/24 08:44:16;;;;;;;6.17;2.33;;;;;;;;;;5275508;28;20052;-80
2022/07/24 08:46:48;;;;;;;3.53;2.03;;;;;;;;;;5275435;28;20044;-80
2022/07/24 08:49:19;;;;;;;3.90;2.22;;;;;;;;;;5273622;28;20056;-81
2022/07/24 08:51:51;;;;;;;2.50;2.30;;;;;;;;;;5275692;28;20033;-80
2022/07/24 08:54:22;;;;;;;4.47;2.40;;;;;;;;;;5276891;28;20031;-81
2022/07/24 08:56:53;;;;;;;2.50;2.30;;;;;;;;;;5254938;28;20044;-80
2022/07/24 08:59:25;;;;;;;4.90;2.27;;;;;;;;;;5269274;28;20603;-80
2022/07/24 09:01:56;;;;;;;2.38;2.17;;;;;;;;;;5270366;28;20029;-80
2022/07/24 09:04:33;;;;;;;3.58;2.10;;;;;;;;;;5270239;28;20025;-81
2022/07/24 09:07:06;;;;;;;4.13;2.28;;;;;;;;;;5265672;28;20107;-81
2022/07/24 09:09:38;;;;;;;2.38;2.17;;;;;;;;;;5285221;28;20017;-80
2022/07/24 09:12:12;;;;;;;2.35;2.10;;;;;;;;;;5279202;28;20056;-81
2022/07/24 09:14:47;;;;;;;3.50;2.20;;;;;;;;;;5274384;28;20065;-81
2022/07/24 09:17:20;;;;;;;2.80;2.17;;;;;;;;;;5262458;28;20048;-81
2022/07/24 09:19:53;;;;;;;2.67;2.35;;;;;;;;;;5273394;28;20045;-81
2022/07/24 09:22:31;;;;;;;3.75;2.40;;;;;;;;;;5258639;28;20033;-81
2022/07/24 09:25:15;;;;;;;2.53;1.90;;;;;;;;;;5282243;28;20390;-81
2022/07/24 09:27:46;;;;;;;3.17;2.50;;;;;;;;;;5286798;28;20116;-81
2022/07/24 09:30:36;;;;;;;3.03;2.10;;;;;;;;;;5278574;28;20112;-81
2022/07/24 09:33:07;;;;;;;1.60;1.50;;;;;;;;;;5264339;28;20033;-81
2022/07/24 09:35:40;;;;;;;2.05;1.77;;;;;;;;;;5276235;28;20084;-80
2022/07/24 09:38:21;;;;;;;2.00;1.70;;;;;;;;;;5275013;28;20076;-80
2022/07/24 09:40:54;;;;;;;2.25;1.90;;;;;;;;;;5268011;28;20103;-80
2022/07/24 09:43:30;;;;;;;1.55;1.45;;;;;;;;;;5283172;28;20401;-80
2022/07/24 09:46:02;;;;;;;2.13;1.73;;;;;;;;;;5282541;28;20032;-81
2022/07/24 09:48:35;;;;;;;2.75;1.75;;;;;;;;;;5296494;28;20376;-80
2022/07/24 09:51:10;;;;;;;3.00;1.80;;;;;;;;;;5271111;28;20037;-80
2022/07/24 09:53:41;;;;;;;;;;;;;;;;;;5278910;28;20103;-81
2022/07/24 09:56:13;;;;;;;3.13;1.55;;;;;;;;;;5284926;28;19995;-81
2022/07/24 09:58:44;;;;;;;3.30;1.95;;;;;;;;;;5281064;28;20033;-81
2022/07/24 10:01:17;;;;;;;1.40;1.30;;;;;;;;;;5295755;28;20392;-81
2022/07/24 10:03:49;;;;;;;2.15;1.67;;;;;;;;;;5267055;28;20021;-80
2022/07/24 10:06:25;;;;;;;2.10;1.40;;;;;;;;;;5263953;28;20035;-81
2022/07/24 10:08:56;;;;;;;1.98;1.50;;;;;;;;;;5284265;28;20024;-81
2022/07/24 10:11:28;;;;;;;1.75;1.50;;;;;;;;;;5286249;28;20017;-81
2022/07/24 10:13:59;;;;;;;1.33;1.23;;;;;;;;;;5285447;28;20029;-81
2022/07/24 10:16:31;;;;;;;1.63;1.53;;;;;;;;;;5288676;28;20399;-81
2022/07/24 10:19:03;;;;;;;2.58;1.55;;;;;;;;;;5268898;28;20367;-81
2022/07/24 10:21:36;;;;;;;4.82;1.58;;;;;;;;;;5280593;28;20077;-81
2022/07/24 10:24:11;;;;;;;1.63;1.23;;;;;;;;;;5286148;28;20135;-81
2022/07/24 10:26:44;;;;;;;2.38;1.38;;;;;;;;;;5268753;28;20523;-80
2022/07/24 10:29:24;;;;;;;2.40;1.63;;;;;;;;;;5261963;28;20034;-82
2022/07/24 10:31:56;;;;;;;2.42;1.42;;;;;;;;;;5261648;28;20107;-80
2022/07/24 10:34:32;;;;;;;2.45;1.77;;;;;;;;;;5281002;28;20108;-81
2022/07/24 10:37:06;;;;;;;2.42;1.45;;;;;;;;;;5270542;28;20048;-80
2022/07/24 10:39:47;;;;;;;2.00;1.77;;;;;;;;;;5282977;28;20045;-81
2022/07/24 10:42:18;;;;;;;3.47;1.50;;;;;;;;;;5268598;28;20041;-80
2022/07/24 10:45:11;;;;;;;4.20;1.37;;;;;;;;;;5279697;28;20080;-81
2022/07/24 10:47:43;;;;;;;3.08;1.50;;;;;;;;;;5273920;28;20123;-81
2022/07/24 10:50:14;;;;;;;2.08;1.48;;;;;;;;;;5284945;28;20107;-81
2022/07/24 10:52:46;;;;;;;1.92;1.40;;;;;;;;;;5270932;28;20124;-80
2022/07/24 10:55:22;;;;;;;2.73;1.40;;;;;;;;;;5275001;28;20345;-81
2022/07/24 10:57:56;;;;;;;2.70;1.60;;;;;;;;;;5271193;28;20037;-81
2022/07/24 11:00:32;;;;;;;3.20;2.10;;;;;;;;;;5273954;28;20033;-81
2022/07/24 11:03:07;;;;;;;2.65;1.80;;;;;;;;;;5279260;28;20366;-82
2022/07/24 11:05:38;;;;;;;3.13;1.73;;;;;;;;;;5280757;28;20084;-83
2022/07/24 11:08:12;;;;;;;1.77;1.60;;;;;;;;;;5280615;28;20473;-81
2022/07/24 11:10:49;;;;;;;1.40;1.30;;;;;;;;;;5262931;28;20035;-81
2022/07/24 11:13:32;;;;;;;1.88;1.35;;;;;;;;;;5257852;28;20136;-81
2022/07/24 11:16:09;;;;;;;1.50;1.40;;;;;;;;;;5270821;28;20029;-80
2022/07/24 11:18:50;;;;;;;2.40;1.90;;;;;;;;;;5269115;28;20415;-80
2022/07/24 11:21:31;;;;;;;1.60;1.50;;;;;;;;;;5269094;28;20084;-81
2022/07/24 11:24:15;;;;;;;3.47;1.70;;;;;;;;;;5281540;28;20227;-81
2022/07/24 11:26:46;;;;;;;3.92;1.52;;;;;;;;;;5284204;28;20482;-81
2022/07/24 11:29:26;;;;;;;2.40;1.73;;;;;;;;;;5282718;28;20040;-81
2022/07/24 11:32:02;;;;;;;2.38;1.40;;;;;;;;;;5282755;28;20160;-81
2022/07/24 11:34:35;;;;;;;1.83;1.50;;;;;;;;;;5282613;28;20068;-81
2022/07/24 11:37:06;;;;;;;1.60;1.20;;;;;;;;;;5275809;28;20495;-81
2022/07/24 11:39:41;;;;;;;2.28;1.70;;;;;;;;;;5263484;28;20028;-81
2022/07/24 11:42:14;;;;;;;3.28;1.20;;;;;;;;;;5267724;28;20715;-81
2022/07/24 11:44:46;;;;;;;1.40;1.30;;;;;;;;;;5261387;28;20528;-81
2022/07/24 11:47:21;;;;;;;2.35;1.45;;;;;;;;;;5262310;28;20040;-81
2022/07/24 11:50:00;;;;;;;2.78;1.30;;;;;;;;;;5261260;28;20045;-81
2022/07/24 11:52:33;;;;;;;3.15;1.40;;;;;;;;;;5274771;28;20095;-81
2022/07/24 11:55:09;;;;;;;2.33;1.77;;;;;;;;;;5276365;28;20029;-82
2022/07/24 11:57:42;;;;;;;2.63;1.42;;;;;;;;;;5269576;28;20017;-80
2022/07/24 12:00:15;;;;;;;1.60;1.50;;;;;;;;;;5277803;28;20056;-83
2022/07/24 12:02:47;;;;;;;1.85;1.23;;;;;;;;;;5264060;28;20032;-82
2022/07/24 12:05:28;;;;;;;2.65;1.30;;;;;;;;;;5252943;28;20036;-81
2022/07/24 12:07:59;;;;;;;1.67;1.58;;;;;;;;;;5260492;28;20033;-83
2022/07/24 12:10:31;;;;;;;2.30;1.70;;;;;;;;;;5269472;28;20055;-83
2022/07/24 12:13:02;;;;;;;4.15;1.48;;;;;;;;;;5251679;28;20071;-83
2022/07/24 12:15:37;;;;;;;1.70;1.43;;;;;;;;;;5252089;28;20033;-83
2022/07/24 12:18:09;;;;;;;2.47;1.58;;;;;;;;;;5263891;28;20041;-83
2022/07/24 12:20:41;;;;;;;1.60;1.40;;;;;;;;;;5259249;28;20045;-83
2022/07/24 12:23:16;;;;;;;1.48;1.38;;;;;;;;;;5282709;28;20021;-82
2022/07/24 12:25:47;;;;;;;1.75;1.20;;;;;;;;;;5281469;28;20040;-83
2022/07/24 12:28:18;;;;;;;3.15;1.48;;;;;;;;;;5278850;28;20017;-83
2022/07/24 12:30:51;;;;;;;2.45;1.42;;;;;;;;;;5281019;28;20125;-83
2022/07/24 12:33:29;;;;;;;1.30;1.10;;;;;;;;;;5282107;28;20021;-83
2022/07/24 12:36:11;;;;;;;2.22;1.20;;;;;;;;;;5264214;28;20394;-83
2022/07/24 12:38:50;;;;;;;4.28;1.35;;;;;;;;;;5261954;28;20488;-83
2022/07/24 12:41:22;;;;;;;1.33;1.15;;;;;;;;;;5243537;28;20036;-82
2022/07/24 12:43:54;;;;;;;2.67;1.25;;;;;;;;;;5276872;28;20033;-82
2022/07/24 12:46:37;;;;;;;2.05;1.40;;;;;;;;;;5281903;28;20547;-82
2022/07/24 12:49:15;;;;;;;1.40;1.30;;;;;;;;;;5281582;28;20044;-82
2022/07/24 12:51:52;;;;;;;3.58;1.40;;;;;;;;;;5264044;28;20148;-82
2022/07/24 12:54:29;;;;;;;5.55;1.60;;;;;;;;;;5262942;28;20115;-82
2022/07/24 12:57:07;;;;;;;1.55;1.20;;;;;;;;;;5282582;28;20033;-82
2022/07/24 12:59:40;;;;;;;1.63;1.10;;;;;;;;;;5280408;28;20029;-82
2022/07/24 13:02:21;;;;;;;2.30;1.10;;;;;;;;;;5279991;28;20032;-82
2022/07/24 13:04:53;;;;;;;3.50;1.40;;;;;;;;;;5263246;28;20025;-82
2022/07/24 13:07:25;;;;;;;1.67;1.40;;;;;;;;;;5282762;28;20033;-82
2022/07/24 13:09:59;;;;;;;1.45;1.30;;;;;;;;;;5283111;28;20025;-82
2022/07/24 13:12:31;;;;;;;2.25;1.17;;;;;;;;;;5280707;28;20029;-82
2022/07/24 13:15:02;;;;;;;1.77;1.47;;;;;;;;;;5282021;28;20440;-82
2022/07/24 13:17:33;;;;;;;1.63;1.47;;;;;;;;;;5280248;28;20085;-82
2022/07/24 13:20:06;;;;;;;2.63;1.10;;;;;;;;;;5281128;28;20139;-82
2022/07/24 13:22:38;;;;;;;1.48;1.30;;;;;;;;;;5285026;28;20087;-82
2022/07/24 13:25:09;;;;;;;1.90;1.53;;;;;;;;;;5265762;28;20060;-82
2022/07/24 13:27:40;;;;;;;2.20;1.60;;;;;;;;;;5265108;28;20041;-82
2022/07/24 13:30:11;;;;;;;1.53;1.43;;;;;;;;;;5247100;28;20049;-82
2022/07/24 13:32:43;;;;;;;2.30;1.60;;;;;;;;;;5269008;28;20059;-82
2022/07/24 13:35:14;;;;;;;3.33;1.50;;;;;;;;;;5265872;28;20025;-82
2022/07/24 13:37:45;;;;;;;2.10;1.40;;;;;;;;;;5286382;28;20386;-82
2022/07/24 13:40:16;;;;;;;1.67;1.30;;;;;;;;;;5267822;28;20109;-80
2022/07/24 13:42:48;;;;;;;2.80;1.45;;;;;;;;;;5285104;28;20061;-82
2022/07/24 13:45:20;;;;;;;2.60;1.58;;;;;;;;;;5285902;28;20370;-82
2022/07/24 13:47:51;;;;;;;3.33;1.70;;;;;;;;;;5286118;28;20385;-82
2022/07/24 13:50:22;;;;;;;3.50;1.83;;;;;;;;;;5284625;28;20029;-83
2022/07/24 13:52:53;;;;;;;2.77;1.70;;;;;;;;;;5266544;28;20049;-82
2022/07/24 13:55:24;;;;;;;1.67;1.43;;;;;;;;;;5267405;28;20021;-83
2022/07/24 13:57:59;;;;;;;2.50;1.50;;;;;;;;;;5285637;28;20060;-82
2022/07/24 14:00:30;;;;;;;1.73;1.60;;;;;;;;;;5284238;28;20049;-82
2022/07/24 14:03:01;;;;;;;2.43;1.70;;;;;;;;;;5283039;28;20056;-83
2022/07/24 14:05:32;;;;;;;4.00;1.80;;;;;;;;;;5284280;28;20477;-82
2022/07/24 14:08:03;;;;;;;3.55;1.77;;;;;;;;;;5285724;28;20021;-83
2022/07/24 14:10:35;;;;;;;1.40;1.30;;;;;;;;;;5284719;28;20021;-83
2022/07/24 14:13:06;;;;;;;2.17;1.60;;;;;;;;;;5284083;28;20096;-82
2022/07/24 14:15:37;;;;;;;4.33;1.50;;;;;;;;;;5275812;28;20504;-82
2022/07/24 14:18:08;;;;;;;1.58;1.40;;;;;;;;;;5263239;28;20026;-82
2022/07/24 14:20:40;;;;;;;1.63;1.53;;;;;;;;;;5282592;28;20045;-82
2022/07/24 14:23:11;;;;;;;2.70;1.67;;;;;;;;;;5283724;28;20075;-82
2022/07/24 14:25:43;;;;;;;2.70;1.87;;;;;;;;;;5284569;28;20053;-83
2022/07/24 14:28:14;;;;;;;2.17;1.60;;;;;;;;;;5284479;28;20256;-82
2022/07/24 14:30:46;;;;;;;1.93;1.50;;;;;;;;;;5284322;28;20031;-83
2022/07/24 14:33:17;;;;;;;2.00;1.60;;;;;;;;;;5283605;28;20036;-82
2022/07/24 14:35:49;;;;;;;1.95;1.60;;;;;;;;;;5281847;28;20044;-82
2022/07/24 14:38:20;;;;;;;1.95;1.60;;;;;;;;;;5284111;28;20476;-83
2022/07/24 14:40:51;;;;;;;2.80;1.50;;;;;;;;;;5284801;28;20032;-83
2022/07/24 14:43:22;;;;;;;1.90;1.60;;;;;;;;;;5283786;28;20394;-83
2022/07/24 14:45:54;;;;;;;1.40;1.30;;;;;;;;;;5266684;28;20143;-83
2022/07/24 14:48:25;;;;;;;1.38;1.27;;;;;;;;;;5283869;28;20028;-82
2022/07/24 14:50:56;;;;;;;2.10;1.30;;;;;;;;;;5283876;28;20044;-82
2022/07/24 14:53:28;;;;;;;3.60;1.37;;;;;;;;;;5264626;28;20029;-82
2022/07/24 14:55:59;;;;;;;3.80;1.60;;;;;;;;;;5284743;28;20472;-82
2022/07/24 14:58:30;;;;;;;1.70;1.42;;;;;;;;;;5283973;28;20025;-82
2022/07/24 15:01:02;;;;;;;2.00;1.33;;;;;;;;;;5285110;28;20531;-82
2022/07/24 15:03:33;;;;;;;3.33;1.52;;;;;;;;;;5283320;28;20457;-82
2022/07/24 15:06:04;;;;;;;1.80;1.43;;;;;;;;;;5282904;28;20722;-82
2022/07/24 15:08:35;;;;;;;1.70;1.25;;;;;;;;;;5265537;28;20029;-82
2022/07/24 15:11:07;;;;;;;2.77;1.30;;;;;;;;;;5284462;28;20028;-82
2022/07/24 15:13:40;;;;;;;2.58;1.33;;;;;;;;;;5283254;28;20107;-82
2022/07/24 15:16:11;;;;;;;1.30;1.20;;;;;;;;;;5283880;28;20028;-82
2022/07/24 15:18:42;;;;;;;2.50;1.30;;;;;;;;;;5265359;28;20013;-82
2022/07/24 15:21:13;;;;;;;3.10;1.33;;;;;;;;;;5283479;28;20120;-82
2022/07/24 15:23:44;;;;;;;2.67;1.40;;;;;;;;;;5264894;28;20057;-82
2022/07/24 15:26:16;;;;;;;1.97;1.33;;;;;;;;;;5281775;28;20528;-82
2022/07/24 15:28:47;;;;;;;1.63;1.50;;;;;;;;;;5283707;28;20428;-82
2022/07/24 15:31:19;;;;;;;1.60;1.50;;;;;;;;;;5283825;28;20025;-82
2022/07/24 15:33:50;;;;;;;2.40;1.25;;;;;;;;;;5280880;28;20938;-82
2022/07/24 15:36:21;;;;;;;1.80;1.40;;;;;;;;;;5282198;28;20056;-82
2022/07/24 15:38:53;;;;;;;1.63;1.23;;;;;;;;;;5283894;28;20282;-82
2022/07/24 15:41:24;;;;;;;2.70;1.52;;;;;;;;;;5283663;28;20294;-82
2022/07/24 15:43:55;;;;;;;1.60;1.27;;;;;;;;;;5282139;28;20477;-82
2022/07/24 15:46:27;;;;;;;5.57;1.40;;;;;;;;;;5284029;28;20359;-82
2022/07/24 15:48:58;;;;;;;2.80;1.80;;;;;;;;;;5282661;28;20358;-82
2022/07/24 15:51:29;;;;;;;3.13;1.20;;;;;;;;;;5283869;28;20032;-82